createdAt,value
2022-08-27T00:02:08.654Z,0.95
2022-08-27T00:04:37.533Z,0.90
2022-08-27T00:07:06.236Z,0.80
2022-08-27T00:09:34.868Z,0.90
2022-08-27T00:12:03.350Z,0.80
2022-08-27T00:14:31.325Z,0.80
2022-08-27T00:16:59.138Z,0.77
2022-08-27T00:19:27.090Z,0.90
2022-08-27T00:21:55.992Z,0.75
2022-08-27T00:24:24.554Z,0.93
2022-08-27T00:26:54.141Z,0.65
2022-08-27T00:29:22.169Z,0.75
2022-08-27T00:31:53.467Z,0.82
2022-08-27T00:34:23.150Z,0.80
2022-08-27T00:36:51.165Z,0.80
2022-08-27T00:39:20.555Z,0.80
2022-08-27T00:41:48.727Z,0.88
2022-08-27T00:44:17.162Z,0.80
2022-08-27T00:46:53.477Z,0.60
2022-08-27T00:49:47.685Z,0.95
2022-08-27T00:52:29.338Z,1.02
2022-08-27T00:55:19.214Z,1.00
2022-08-27T00:57:56.968Z,0.90
2022-08-27T01:00:25.030Z,1.08
2022-08-27T01:02:53.002Z,0.93
2022-08-27T01:05:25.768Z,0.85
2022-08-27T01:08:00.032Z,0.68
2022-08-27T01:10:29.734Z,0.68
2022-08-27T01:12:58.217Z,1.05
2022-08-27T01:15:28.717Z,0.90
2022-08-27T01:17:58.441Z,0.90
2022-08-27T01:20:36.098Z,0.98
2022-08-27T01:23:45.772Z,1.08
2022-08-27T01:26:15.779Z,0.70
2022-08-27T01:28:44.641Z,0.90
2022-08-27T01:31:13.436Z,0.85
2022-08-27T01:33:53.339Z,0.80
2022-08-27T01:36:21.263Z,0.70
2022-08-27T01:38:49.278Z,0.73
2022-08-27T01:41:18.067Z,0.73
2022-08-27T01:43:48.954Z,1.08
2022-08-27T01:46:25.037Z,0.95
2022-08-27T01:48:53.537Z,1.00
2022-08-27T01:51:22.450Z,0.90
2022-08-27T01:53:50.875Z,1.20
2022-08-27T01:56:18.861Z,0.75
2022-08-27T01:58:46.787Z,0.80
2022-08-27T02:01:19.896Z,0.80
2022-08-27T02:03:48.740Z,0.80
2022-08-27T02:06:17.342Z,0.70
2022-08-27T02:08:45.345Z,0.90
2022-08-27T02:11:13.437Z,0.60
2022-08-27T02:13:41.465Z,0.75
2022-08-27T02:16:09.801Z,0.68
2022-08-27T02:18:41.734Z,0.85
2022-08-27T02:21:10.826Z,0.80
2022-08-27T02:23:39.750Z,0.80
2022-08-27T02:26:08.167Z,0.70
2022-08-27T02:28:36.328Z,0.60
2022-08-27T02:31:05.273Z,0.90
2022-08-27T02:33:35.253Z,0.77
2022-08-27T02:36:04.104Z,0.77
2022-08-27T02:38:34.555Z,0.70
2022-08-27T02:41:02.833Z,0.80
2022-08-27T02:43:31.779Z,0.60
2022-08-27T02:46:01.442Z,0.60
2022-08-27T02:48:29.560Z,0.88
2022-08-27T02:50:57.591Z,0.98
2022-08-27T02:53:25.426Z,0.75
2022-08-27T02:55:53.363Z,1.13
2022-08-27T02:58:21.541Z,1.17
2022-08-27T03:00:49.680Z,0.70
2022-08-27T03:03:17.792Z,0.80
2022-08-27T03:05:46.190Z,0.70
2022-08-27T03:08:14.277Z,0.70
2022-08-27T03:10:42.312Z,0.60
2022-08-27T03:13:10.956Z,0.75
2022-08-27T03:15:39.163Z,0.60
2022-08-27T03:18:18.928Z,0.57
2022-08-27T03:20:52.881Z,0.77
2022-08-27T03:23:25.059Z,0.80
2022-08-27T03:25:56.406Z,0.80
2022-08-27T03:28:27.011Z,0.73
2022-08-27T03:31:01.651Z,0.95
2022-08-27T03:33:33.104Z,0.70
2022-08-27T03:36:01.537Z,0.60
2022-08-27T03:38:29.718Z,0.63
2022-08-27T03:40:57.691Z,0.80
2022-08-27T03:43:25.854Z,0.65
2022-08-27T03:46:01.333Z,0.63
2022-08-27T03:48:32.341Z,0.68
2022-08-27T03:51:05.729Z,0.80
2022-08-27T03:53:34.066Z,0.70
2022-08-27T03:56:02.001Z,0.60
2022-08-27T03:58:29.952Z,0.90
2022-08-27T04:00:58.036Z,0.70
2022-08-27T04:03:26.112Z,0.90
2022-08-27T04:05:58.075Z,0.73
2022-08-27T04:08:27.155Z,0.80
2022-08-27T04:10:55.621Z,1.25
2022-08-27T04:13:24.765Z,0.70
2022-08-27T04:15:56.638Z,0.65
2022-08-27T04:18:24.889Z,0.80
2022-08-27T04:20:53.181Z,0.82
2022-08-27T04:23:22.055Z,0.82
2022-08-27T04:25:50.129Z,0.85
2022-08-27T04:28:18.122Z,0.60
2022-08-27T04:30:47.826Z,0.70
2022-08-27T04:33:16.461Z,0.70
2022-08-27T04:35:44.424Z,0.60
2022-08-27T04:38:12.611Z,0.70
2022-08-27T04:40:58.904Z,1.05
2022-08-27T04:43:30.669Z,0.73
2022-08-27T04:45:58.742Z,0.60
2022-08-27T04:48:29.787Z,0.60
2022-08-27T04:50:57.953Z,0.80
2022-08-27T04:53:26.036Z,0.60
2022-08-27T04:55:56.781Z,0.68
2022-08-27T04:58:26.481Z,0.65
2022-08-27T05:01:01.947Z,0.60
2022-08-27T05:03:30.767Z,0.75
2022-08-27T05:06:05.190Z,0.75
2022-08-27T05:11:02.293Z,0.68
2022-08-27T05:13:30.631Z,0.43
2022-08-27T05:16:07.709Z,0.70
2022-08-27T05:18:42.079Z,0.90
2022-08-27T05:21:28.584Z,1.00
2022-08-27T05:23:59.597Z,0.60
2022-08-27T05:26:29.425Z,0.60
2022-08-27T05:29:00.461Z,1.30
2022-08-27T05:31:29.669Z,0.80
2022-08-27T05:33:58.014Z,0.63
2022-08-27T05:36:33.719Z,0.82
2022-08-27T05:39:04.778Z,0.60
2022-08-27T05:41:34.585Z,0.70
2022-08-27T05:44:39.195Z,0.77
2022-08-27T05:46:58.917Z,0.80
2022-08-27T05:49:26.939Z,0.80
2022-08-27T05:51:54.939Z,0.80
2022-08-27T05:54:23.037Z,0.60
2022-08-27T05:56:51.070Z,0.88
2022-08-27T05:59:37.524Z,0.73
2022-08-27T06:02:07.297Z,0.70
2022-08-27T06:04:35.780Z,0.90
2022-08-27T06:07:04.687Z,0.70
2022-08-27T06:09:32.741Z,0.80
2022-08-27T06:12:01.376Z,0.60
2022-08-27T06:14:30.090Z,0.75
2022-08-27T06:17:00.983Z,0.80
2022-08-27T06:19:29.742Z,1.13
2022-08-27T06:22:00.816Z,0.70
2022-08-27T06:24:39.297Z,0.70
2022-08-27T06:27:09.018Z,0.70
2022-08-27T06:29:37.162Z,0.80
2022-08-27T06:32:05.752Z,1.10
2022-08-27T06:34:35.246Z,0.75
2022-08-27T06:37:03.109Z,0.80
2022-08-27T06:39:31.741Z,0.98
2022-08-27T06:42:00.311Z,0.82
2022-08-27T06:44:34.094Z,0.80
2022-08-27T06:47:04.074Z,0.80
2022-08-27T06:49:33.866Z,0.70
2022-08-27T06:52:01.746Z,1.00
2022-08-27T06:54:29.686Z,0.95
2022-08-27T06:57:00.442Z,1.00
2022-08-27T06:59:28.582Z,1.00
2022-08-27T07:01:56.591Z,0.70
2022-08-27T07:04:32.668Z,0.85
2022-08-27T07:07:04.607Z,0.70
2022-08-27T07:09:34.334Z,0.90
2022-08-27T07:12:03.290Z,0.88
2022-08-27T07:14:37.539Z,0.70
2022-08-27T07:17:10.853Z,1.00
2022-08-27T07:19:41.278Z,0.90
2022-08-27T07:22:10.766Z,0.70
2022-08-27T07:24:39.032Z,0.80
2022-08-27T07:27:08.192Z,0.70
2022-08-27T07:29:36.270Z,0.85
2022-08-27T07:32:05.100Z,0.82
2022-08-27T07:34:33.135Z,0.93
2022-08-27T07:37:01.154Z,0.93
2022-08-27T07:39:29.223Z,0.85
2022-08-27T07:42:17.069Z,0.98
2022-08-27T07:44:45.315Z,0.80
2022-08-27T07:47:13.849Z,0.90
2022-08-27T07:49:41.781Z,1.17
2022-08-27T07:52:10.200Z,1.38
2022-08-27T07:54:38.127Z,0.98
2022-08-27T07:57:06.233Z,0.80
2022-08-27T07:59:34.414Z,1.05
2022-08-27T08:02:02.578Z,1.02
2022-08-27T08:04:31.017Z,1.17
2022-08-27T08:06:59.071Z,1.00
2022-08-27T08:09:27.736Z,1.15
2022-08-27T08:11:55.799Z,1.20
2022-08-27T08:14:23.748Z,0.73
2022-08-27T08:16:51.931Z,1.33
2022-08-27T08:19:20.197Z,0.85
2022-08-27T08:21:48.210Z,1.35
2022-08-27T08:24:16.215Z,0.90
2022-08-27T08:26:44.546Z,1.52
2022-08-27T08:29:16.668Z,1.15
2022-08-27T08:31:50.183Z,0.90
2022-08-27T08:34:20.183Z,0.88
2022-08-27T08:36:54.025Z,1.23
2022-08-27T08:39:24.232Z,1.08
2022-08-27T08:41:54.132Z,1.30
2022-08-27T08:44:46.260Z,0.98
2022-08-27T08:47:23.953Z,1.30
2022-08-27T08:49:59.495Z,1.00
2022-08-27T08:52:40.436Z,0.70
2022-08-27T08:55:30.005Z,1.33
2022-08-27T08:58:12.704Z,1.95
2022-08-27T09:00:44.364Z,1.38
2022-08-27T09:03:15.283Z,1.08
2022-08-27T09:05:49.694Z,1.10
2022-08-27T09:08:37.600Z,1.30
2022-08-27T09:11:27.073Z,1.40
2022-08-27T09:14:36.439Z,0.98
2022-08-27T09:17:10.805Z,0.80
2022-08-27T09:19:39.840Z,1.33
2022-08-27T09:22:44.326Z,0.75
2022-08-27T09:25:27.300Z,0.50
2022-08-27T09:28:01.821Z,0.57
2022-08-27T09:30:34.081Z,0.52
2022-08-27T09:33:05.227Z,0.68
2022-08-27T09:35:45.181Z,0.52
2022-08-27T09:38:27.198Z,0.73
2022-08-27T09:40:59.759Z,0.82
2022-08-27T09:43:30.503Z,0.95
2022-08-27T09:46:07.992Z,0.88
2022-08-27T09:48:38.401Z,0.70
2022-08-27T09:51:13.977Z,0.50
2022-08-27T09:53:50.885Z,0.40
2022-08-27T09:56:42.425Z,0.50
2022-08-27T09:59:24.930Z,0.43
2022-08-27T10:02:02.760Z,0.50
2022-08-27T10:04:51.280Z,0.60
2022-08-27T10:07:42.042Z,0.80
2022-08-27T10:10:21.802Z,0.50
2022-08-27T10:13:10.334Z,0.70
2022-08-27T10:15:49.404Z,0.57
2022-08-27T10:18:48.325Z,0.75
2022-08-27T10:21:41.630Z,0.80
2022-08-27T10:24:34.174Z,0.80
2022-08-27T10:27:39.707Z,1.65
2022-08-27T10:33:21.441Z,0.63
2022-08-27T10:35:59.005Z,0.70
2022-08-27T10:39:02.600Z,0.70
2022-08-27T10:41:34.657Z,0.50
2022-08-27T10:44:37.978Z,0.68
2022-08-27T10:47:30.927Z,0.60
2022-08-27T10:50:12.161Z,0.45
2022-08-27T10:53:10.688Z,0.52
2022-08-27T10:55:46.369Z,0.40
2022-08-27T10:58:20.261Z,0.57
2022-08-27T11:01:22.591Z,0.43
2022-08-27T11:04:18.774Z,0.50
2022-08-27T11:07:05.674Z,0.50
2022-08-27T11:09:48.163Z,0.30
2022-08-27T11:12:25.484Z,0.40
2022-08-27T11:15:01.062Z,0.52
2022-08-27T11:17:40.366Z,0.50
2022-08-27T11:20:27.719Z,0.30
2022-08-27T11:23:12.723Z,0.30
2022-08-27T11:25:55.960Z,0.30
2022-08-27T11:28:42.451Z,0.30
2022-08-27T11:31:22.058Z,0.82
2022-08-27T11:34:14.416Z,0.43
2022-08-27T11:37:08.844Z,0.47
2022-08-27T11:40:14.736Z,0.20
2022-08-27T11:42:45.960Z,0.47
2022-08-27T11:45:35.208Z,0.60
2022-08-27T11:48:33.645Z,0.45
2022-08-27T11:51:12.271Z,0.40
2022-08-27T11:54:02.142Z,0.55
2022-08-27T11:56:30.027Z,0.60
2022-08-27T11:59:32.104Z,0.40
2022-08-27T12:02:27.326Z,0.30
2022-08-27T12:05:26.683Z,0.40
2022-08-27T12:07:55.007Z,0.40
2022-08-27T12:10:56.462Z,0.40
2022-08-27T12:13:34.480Z,0.50
2022-08-27T12:16:36.657Z,0.32
2022-08-27T12:19:29.163Z,0.20
2022-08-27T12:22:17.959Z,0.35
2022-08-27T12:24:56.177Z,0.20
2022-08-27T12:27:36.714Z,0.50
2022-08-27T12:30:35.896Z,0.40
2022-08-27T12:33:43.213Z,0.75
2022-08-27T12:36:27.706Z,0.40
2022-08-27T12:38:59.025Z,0.40
2022-08-27T12:41:44.582Z,0.30
2022-08-27T12:44:28.222Z,0.57
2022-08-27T12:47:06.522Z,0.40
2022-08-27T12:49:50.521Z,0.30
2022-08-27T12:52:46.576Z,0.47
2022-08-27T12:55:30.666Z,0.63
2022-08-27T12:58:34.378Z,0.30
2022-08-27T13:01:24.626Z,0.40
2022-08-27T13:03:54.612Z,0.25
2022-08-27T13:06:26.661Z,0.30
2022-08-27T13:08:57.120Z,0.38
2022-08-27T13:11:29.507Z,0.38
2022-08-27T13:14:22.292Z,0.35
2022-08-27T13:16:57.623Z,0.40
2022-08-27T13:19:33.020Z,0.30
2022-08-27T13:22:02.257Z,0.30
2022-08-27T13:24:36.320Z,0.30
2022-08-27T13:27:06.726Z,0.30
2022-08-27T13:29:35.282Z,0.55
2022-08-27T13:32:03.742Z,0.40
2022-08-27T13:34:39.063Z,0.40
2022-08-27T13:37:22.082Z,0.38
2022-08-27T13:39:54.510Z,0.50
2022-08-27T13:42:25.247Z,0.20
2022-08-27T13:45:01.132Z,0.30
2022-08-27T13:47:30.329Z,0.30
2022-08-27T13:50:14.692Z,0.40
2022-08-27T13:53:02.608Z,0.30
2022-08-27T13:55:33.338Z,0.30
2022-08-27T13:58:12.348Z,0.30
2022-08-27T14:00:40.463Z,0.20
2022-08-27T14:03:25.894Z,0.30
2022-08-27T14:05:53.914Z,0.28
2022-08-27T14:08:23.396Z,0.25
2022-08-27T14:11:02.177Z,0.20
2022-08-27T14:13:37.940Z,0.20
2022-08-27T14:16:16.714Z,0.57
2022-08-27T14:19:13.463Z,0.30
2022-08-27T14:21:43.677Z,0.40
2022-08-27T14:24:14.057Z,0.30
2022-08-27T14:26:42.010Z,0.50
2022-08-27T14:29:11.883Z,0.30
2022-08-27T14:31:40.927Z,0.52
2022-08-27T14:34:08.783Z,0.40
2022-08-27T14:36:39.105Z,0.30
2022-08-27T14:39:08.723Z,0.20
2022-08-27T14:41:36.507Z,0.30
2022-08-27T14:44:04.896Z,0.40
2022-08-27T14:46:41.303Z,0.40
2022-08-27T14:49:14.572Z,0.40
2022-08-27T14:51:46.038Z,0.32
2022-08-27T14:54:13.993Z,0.40
2022-08-27T14:56:42.460Z,0.30
2022-08-27T14:59:10.432Z,0.30
2022-08-27T15:01:38.679Z,0.50
2022-08-27T15:04:07.020Z,0.38
2022-08-27T15:06:34.914Z,0.60
2022-08-27T15:09:02.636Z,0.20
2022-08-27T15:11:32.432Z,0.22
2022-08-27T15:14:02.954Z,0.30
2022-08-27T15:16:38.944Z,0.50
2022-08-27T15:19:10.070Z,0.32
2022-08-27T15:21:40.221Z,0.28
2022-08-27T15:24:25.199Z,0.50
2022-08-27T15:26:57.713Z,0.50
2022-08-27T15:29:26.696Z,0.30
2022-08-27T15:31:54.766Z,0.50
2022-08-27T15:34:22.780Z,0.40
2022-08-27T15:36:50.706Z,0.30
2022-08-27T15:39:18.724Z,0.32
2022-08-27T15:42:05.104Z,0.30
2022-08-27T15:44:35.611Z,0.30
2022-08-27T15:47:03.926Z,0.35
2022-08-27T15:49:32.103Z,0.30
2022-08-27T15:52:01.078Z,0.30
2022-08-27T15:54:29.257Z,0.20
2022-08-27T15:56:57.579Z,0.40
2022-08-27T15:59:25.712Z,0.40
2022-08-27T16:01:55.021Z,0.32
2022-08-27T16:04:23.895Z,0.30
2022-08-27T16:06:51.830Z,0.35
2022-08-27T16:09:20.137Z,0.47
2022-08-27T16:11:48.468Z,0.30
2022-08-27T16:14:17.273Z,0.17
2022-08-27T16:16:47.577Z,0.25
2022-08-27T16:19:16.821Z,0.20
2022-08-27T16:21:44.706Z,0.40
2022-08-27T16:24:12.551Z,0.30
2022-08-27T16:26:40.485Z,0.30
2022-08-27T16:29:09.911Z,0.30
2022-08-27T16:31:38.213Z,0.20
2022-08-27T16:34:15.714Z,0.40
2022-08-27T16:36:44.134Z,0.30
2022-08-27T16:39:12.203Z,0.20
2022-08-27T16:41:40.107Z,0.30
2022-08-27T16:44:08.119Z,0.35
2022-08-27T16:46:36.204Z,1.10
2022-08-27T16:49:22.640Z,0.30
2022-08-27T16:51:50.710Z,0.22
2022-08-27T16:54:18.990Z,0.40
2022-08-27T16:56:47.273Z,0.30
2022-08-27T16:59:16.148Z,0.20
2022-08-27T17:01:48.469Z,0.30
2022-08-27T17:04:27.655Z,0.20
2022-08-27T17:06:58.645Z,0.30
2022-08-27T17:09:27.176Z,0.30
2022-08-27T17:11:59.190Z,0.32
2022-08-27T17:14:27.609Z,0.30
2022-08-27T17:16:55.819Z,0.30
2022-08-27T17:19:26.412Z,0.40
2022-08-27T17:21:55.316Z,0.43
2022-08-27T17:24:23.892Z,0.20
2022-08-27T17:26:51.927Z,0.25
2022-08-27T17:29:20.261Z,0.32
2022-08-27T17:31:48.560Z,0.30
2022-08-27T17:34:20.810Z,0.30
2022-08-27T17:36:49.063Z,0.30
2022-08-27T17:39:17.831Z,0.30
2022-08-27T17:41:48.397Z,0.30
2022-08-27T17:44:31.849Z,0.38
2022-08-27T17:47:03.776Z,0.30
2022-08-27T17:49:32.111Z,0.30
2022-08-27T17:52:03.176Z,0.38
2022-08-27T17:54:35.499Z,0.20
2022-08-27T17:57:10.690Z,0.30
2022-08-27T17:59:38.744Z,0.30
2022-08-27T18:02:06.965Z,0.20
2022-08-27T18:04:34.802Z,0.30
2022-08-27T18:07:02.993Z,0.20
2022-08-27T18:09:31.009Z,0.30
2022-08-27T18:11:59.218Z,0.30
2022-08-27T18:14:27.427Z,0.35
2022-08-27T18:16:55.592Z,0.30
2022-08-27T18:19:24.223Z,0.20
2022-08-27T18:21:52.831Z,0.30
2022-08-27T18:24:21.125Z,0.30
2022-08-27T18:26:49.730Z,0.35
2022-08-27T18:29:18.531Z,0.50
2022-08-27T18:31:46.571Z,0.30
2022-08-27T18:34:18.832Z,0.20
2022-08-27T18:36:49.340Z,0.30
2022-08-27T18:39:17.469Z,0.38
2022-08-27T18:41:45.792Z,0.30
2022-08-27T18:44:17.219Z,0.30
2022-08-27T18:46:46.062Z,0.30
2022-08-27T18:49:14.036Z,0.20
2022-08-27T18:51:44.066Z,0.30
2022-08-27T18:54:12.685Z,0.28
2022-08-27T18:56:40.756Z,0.40
2022-08-27T18:59:12.013Z,0.32
2022-08-27T19:01:40.937Z,0.50
2022-08-27T19:04:10.711Z,0.35
2022-08-27T19:06:39.115Z,0.73
2022-08-27T19:09:07.831Z,0.30
2022-08-27T19:11:36.255Z,0.30
2022-08-27T19:14:04.751Z,0.30
2022-08-27T19:16:44.574Z,0.43
2022-08-27T19:19:17.757Z,0.30
2022-08-27T19:21:51.235Z,0.40
2022-08-27T19:24:23.324Z,0.30
2022-08-27T19:26:53.278Z,0.32
2022-08-27T19:29:21.397Z,0.30
2022-08-27T19:31:49.873Z,0.28
2022-08-27T19:34:18.253Z,0.40
2022-08-27T19:36:46.555Z,0.30
2022-08-27T19:39:18.346Z,0.30
2022-08-27T19:41:49.890Z,0.20
2022-08-27T19:44:18.455Z,0.30
2022-08-27T19:46:49.120Z,0.20
2022-08-27T19:49:17.460Z,0.20
2022-08-27T19:51:45.782Z,0.30
2022-08-27T19:54:14.100Z,0.20
2022-08-27T19:56:42.361Z,0.30
2022-08-27T19:59:20.567Z,0.30
2022-08-27T20:01:50.546Z,0.10
2022-08-27T20:04:19.190Z,0.30
2022-08-27T20:06:47.721Z,0.20
2022-08-27T20:09:18.150Z,0.28
2022-08-27T20:11:46.572Z,0.30
2022-08-27T20:14:14.750Z,0.20
2022-08-27T20:16:43.799Z,0.20
2022-08-27T20:19:13.451Z,0.20
2022-08-27T20:21:41.944Z,0.35
2022-08-27T20:24:10.196Z,0.20
2022-08-27T20:26:39.848Z,0.30
2022-08-27T20:29:09.476Z,0.30
2022-08-27T20:31:38.075Z,0.20
2022-08-27T20:34:09.444Z,0.30
2022-08-27T20:36:37.916Z,0.30
2022-08-27T20:39:07.691Z,0.30
2022-08-27T20:41:35.796Z,0.20
2022-08-27T20:44:04.287Z,0.28
2022-08-27T20:46:33.005Z,0.30
2022-08-27T20:49:01.456Z,0.45
2022-08-27T20:51:30.030Z,0.20
2022-08-27T20:54:18.978Z,0.30
2022-08-27T20:56:52.324Z,0.13
2022-08-27T20:59:40.169Z,0.30
2022-08-27T21:02:12.765Z,0.30
2022-08-27T21:04:48.734Z,0.30
2022-08-27T21:07:18.889Z,0.20
2022-08-27T21:09:56.459Z,0.20
2022-08-27T21:12:31.560Z,0.20
2022-08-27T21:15:02.151Z,0.28
2022-08-27T21:17:30.703Z,0.40
2022-08-27T21:19:58.999Z,0.30
2022-08-27T21:22:27.795Z,0.30
2022-08-27T21:24:56.855Z,0.35
2022-08-27T21:27:24.934Z,0.30
2022-08-27T21:29:53.106Z,0.20
2022-08-27T21:32:20.965Z,0.30
2022-08-27T21:34:48.597Z,0.20
2022-08-27T21:37:17.668Z,0.30
2022-08-27T21:39:45.724Z,0.40
2022-08-27T21:42:15.695Z,0.30
2022-08-27T21:44:43.628Z,0.40
2022-08-27T21:47:11.611Z,0.57
2022-08-27T21:49:39.365Z,0.45
2022-08-27T21:52:07.624Z,0.40
2022-08-27T21:54:38.943Z,0.50
2022-08-27T21:57:08.182Z,0.50
2022-08-27T22:00:12.348Z,0.50
2022-08-27T22:02:40.879Z,0.55
2022-08-27T22:05:09.738Z,0.60
2022-08-27T22:07:37.375Z,0.68
2022-08-27T22:10:06.369Z,0.70
2022-08-27T22:12:34.341Z,0.50
2022-08-27T22:15:02.513Z,0.70
2022-08-27T22:17:30.825Z,0.65
2022-08-27T22:19:58.462Z,0.50
2022-08-27T22:22:30.687Z,0.50
2022-08-27T22:24:59.044Z,0.50
2022-08-27T22:27:26.978Z,0.60
2022-08-27T22:29:54.699Z,0.43
2022-08-27T22:32:22.323Z,0.73
2022-08-27T22:34:50.094Z,0.50
2022-08-27T22:37:17.730Z,0.55
2022-08-27T22:39:45.286Z,0.50
2022-08-27T22:42:17.621Z,0.60
2022-08-27T22:44:45.702Z,0.55
2022-08-27T22:47:15.179Z,0.65
2022-08-27T22:49:44.010Z,0.40
2022-08-27T22:52:11.907Z,0.65
2022-08-27T22:54:39.903Z,0.50
2022-08-27T22:57:10.561Z,0.73
2022-08-27T22:59:39.247Z,0.70
2022-08-27T23:02:09.547Z,0.65
2022-08-27T23:04:54.634Z,0.60
2022-08-27T23:07:25.085Z,0.47
2022-08-27T23:09:53.058Z,0.60
2022-08-27T23:12:22.245Z,0.50
2022-08-27T23:14:50.212Z,0.80
2022-08-27T23:17:18.391Z,0.50
2022-08-27T23:19:46.380Z,0.60
2022-08-27T23:22:15.178Z,0.52
2022-08-27T23:25:01.278Z,0.40
2022-08-27T23:27:29.120Z,0.50
2022-08-27T23:30:00.126Z,0.50
2022-08-27T23:32:29.200Z,0.43
2022-08-27T23:34:57.907Z,0.40
2022-08-27T23:37:25.904Z,0.40
2022-08-27T23:39:55.434Z,0.45
2022-08-27T23:42:24.860Z,0.40
2022-08-27T23:44:52.758Z,0.40
2022-08-27T23:47:20.855Z,0.40
2022-08-27T23:49:48.799Z,0.40
2022-08-27T23:52:16.394Z,0.40
2022-08-27T23:54:44.325Z,0.30
2022-08-27T23:57:12.176Z,0.30
2022-08-27T23:59:40.108Z,0.30
